sensor_id;sensor_type;location;lat;lon;timestamp;P1;durP1;ratioP1;P2;durP2;ratioP2
61358;SDS011;47228;46.762;23.598;2023-01-13T00:01:27;35.90;;;22.60;;
61358;SDS011;47228;46.762;23.598;2023-01-13T00:03:55;36.20;;;23.30;;
61358;SDS011;47228;46.762;23.598;2023-01-13T00:06:24;38.10;;;22.10;;
61358;SDS011;47228;46.762;23.598;2023-01-13T00:08:53;35.40;;;22.20;;
61358;SDS011;47228;46.762;23.598;2023-01-13T00:11:21;34.90;;;21.80;;
61358;SDS011;47228;46.762;23.598;2023-01-13T00:13:49;36.00;;;24.00;;
61358;SDS011;47228;46.762;23.598;2023-01-13T00:16:17;37.00;;;23.80;;
61358;SDS011;47228;46.762;23.598;2023-01-13T00:18:47;37.90;;;24.40;;
61358;SDS011;47228;46.762;23.598;2023-01-13T00:21:17;36.50;;;24.50;;
61358;SDS011;47228;46.762;23.598;2023-01-13T00:23:53;37.70;;;24.00;;
61358;SDS011;47228;46.762;23.598;2023-01-13T00:26:25;36.50;;;23.00;;
61358;SDS011;47228;46.762;23.598;2023-01-13T00:28:57;38.20;;;24.90;;
61358;SDS011;47228;46.762;23.598;2023-01-13T00:31:27;35.50;;;23.40;;
61358;SDS011;47228;46.762;23.598;2023-01-13T00:33:57;38.50;;;24.50;;
61358;SDS011;47228;46.762;23.598;2023-01-13T00:36:26;39.20;;;24.10;;
61358;SDS011;47228;46.762;23.598;2023-01-13T00:38:55;36.50;;;24.60;;
61358;SDS011;47228;46.762;23.598;2023-01-13T00:41:24;65.10;;;39.10;;
61358;SDS011;47228;46.762;23.598;2023-01-13T00:43:53;59.30;;;36.90;;
61358;SDS011;47228;46.762;23.598;2023-01-13T00:46:21;50.80;;;32.70;;
61358;SDS011;47228;46.762;23.598;2023-01-13T00:48:49;43.70;;;27.80;;
61358;SDS011;47228;46.762;23.598;2023-01-13T00:51:19;43.50;;;26.20;;
61358;SDS011;47228;46.762;23.598;2023-01-13T00:53:48;40.50;;;26.00;;
61358;SDS011;47228;46.762;23.598;2023-01-13T00:56:22;40.60;;;24.50;;
61358;SDS011;47228;46.762;23.598;2023-01-13T00:59:09;38.30;;;24.80;;
61358;SDS011;47228;46.762;23.598;2023-01-13T01:01:38;39.20;;;24.10;;
61358;SDS011;47228;46.762;23.598;2023-01-13T01:04:07;39.20;;;25.20;;
61358;SDS011;47228;46.762;23.598;2023-01-13T01:06:35;41.20;;;25.60;;
61358;SDS011;47228;46.762;23.598;2023-01-13T01:09:03;38.60;;;23.90;;
61358;SDS011;47228;46.762;23.598;2023-01-13T01:11:32;37.60;;;23.80;;
61358;SDS011;47228;46.762;23.598;2023-01-13T01:14:01;38.20;;;23.60;;
61358;SDS011;47228;46.762;23.598;2023-01-13T01:16:31;39.00;;;22.40;;
61358;SDS011;47228;46.762;23.598;2023-01-13T01:19:00;37.30;;;23.00;;
61358;SDS011;47228;46.762;23.598;2023-01-13T01:21:28;36.60;;;23.60;;
61358;SDS011;47228;46.762;23.598;2023-01-13T01:24:00;38.50;;;22.80;;
61358;SDS011;47228;46.762;23.598;2023-01-13T01:28:58;35.20;;;22.40;;
61358;SDS011;47228;46.762;23.598;2023-01-13T01:31:29;39.10;;;23.30;;
61358;SDS011;47228;46.762;23.598;2023-01-13T01:33:59;36.40;;;23.30;;
61358;SDS011;47228;46.762;23.598;2023-01-13T01:36:28;37.10;;;23.40;;
61358;SDS011;47228;46.762;23.598;2023-01-13T01:39:01;34.90;;;23.30;;
61358;SDS011;47228;46.762;23.598;2023-01-13T01:41:31;39.30;;;23.70;;
61358;SDS011;47228;46.762;23.598;2023-01-13T01:44:02;40.00;;;23.70;;
61358;SDS011;47228;46.762;23.598;2023-01-13T01:46:39;39.60;;;23.30;;
61358;SDS011;47228;46.762;23.598;2023-01-13T01:51:38;39.90;;;24.60;;
61358;SDS011;47228;46.762;23.598;2023-01-13T01:54:13;35.00;;;23.20;;
61358;SDS011;47228;46.762;23.598;2023-01-13T01:56:46;35.30;;;24.00;;
61358;SDS011;47228;46.762;23.598;2023-01-13T01:59:14;36.70;;;22.80;;
61358;SDS011;47228;46.762;23.598;2023-01-13T02:01:42;35.50;;;22.40;;
61358;SDS011;47228;46.762;23.598;2023-01-13T02:04:16;34.10;;;22.60;;
61358;SDS011;47228;46.762;23.598;2023-01-13T02:06:49;40.00;;;22.70;;
61358;SDS011;47228;46.762;23.598;2023-01-13T02:09:19;38.10;;;22.90;;
61358;SDS011;47228;46.762;23.598;2023-01-13T02:11:46;39.20;;;24.30;;
61358;SDS011;47228;46.762;23.598;2023-01-13T02:14:33;34.30;;;21.90;;
61358;SDS011;47228;46.762;23.598;2023-01-13T02:27:56;34.20;;;21.10;;
61358;SDS011;47228;46.762;23.598;2023-01-13T02:30:36;35.40;;;22.30;;
61358;SDS011;47228;46.762;23.598;2023-01-13T02:33:33;31.00;;;20.30;;
61358;SDS011;47228;46.762;23.598;2023-01-13T02:41:49;34.30;;;21.40;;
61358;SDS011;47228;46.762;23.598;2023-01-13T02:44:46;31.60;;;21.20;;
61358;SDS011;47228;46.762;23.598;2023-01-13T02:47:21;32.70;;;21.60;;
61358;SDS011;47228;46.762;23.598;2023-01-13T02:49:57;36.10;;;21.70;;
61358;SDS011;47228;46.762;23.598;2023-01-13T02:52:35;35.30;;;22.10;;
61358;SDS011;47228;46.762;23.598;2023-01-13T02:55:11;34.10;;;21.20;;
61358;SDS011;47228;46.762;23.598;2023-01-13T02:57:44;35.10;;;21.40;;
61358;SDS011;47228;46.762;23.598;2023-01-13T03:00:14;34.10;;;21.20;;
61358;SDS011;47228;46.762;23.598;2023-01-13T03:02:43;33.80;;;21.20;;
61358;SDS011;47228;46.762;23.598;2023-01-13T03:05:15;35.80;;;22.10;;
61358;SDS011;47228;46.762;23.598;2023-01-13T03:19:19;35.40;;;21.30;;
61358;SDS011;47228;46.762;23.598;2023-01-13T03:21:56;38.30;;;23.30;;
61358;SDS011;47228;46.762;23.598;2023-01-13T03:24:35;33.80;;;20.80;;
61358;SDS011;47228;46.762;23.598;2023-01-13T03:27:19;34.80;;;21.90;;
61358;SDS011;47228;46.762;23.598;2023-01-13T03:29:53;34.30;;;21.40;;
61358;SDS011;47228;46.762;23.598;2023-01-13T03:32:27;30.90;;;20.70;;
61358;SDS011;47228;46.762;23.598;2023-01-13T03:35:14;32.40;;;21.20;;
61358;SDS011;47228;46.762;23.598;2023-01-13T03:37:50;36.80;;;22.10;;
61358;SDS011;47228;46.762;23.598;2023-01-13T03:40:25;34.40;;;21.60;;
61358;SDS011;47228;46.762;23.598;2023-01-13T03:42:59;35.60;;;20.50;;
61358;SDS011;47228;46.762;23.598;2023-01-13T03:45:51;34.70;;;21.80;;
61358;SDS011;47228;46.762;23.598;2023-01-13T03:48:25;32.70;;;20.80;;
61358;SDS011;47228;46.762;23.598;2023-01-13T03:50:56;34.50;;;21.50;;
61358;SDS011;47228;46.762;23.598;2023-01-13T03:53:39;35.10;;;21.20;;
61358;SDS011;47228;46.762;23.598;2023-01-13T03:56:20;31.10;;;20.70;;
61358;SDS011;47228;46.762;23.598;2023-01-13T03:58:53;35.60;;;21.70;;
61358;SDS011;47228;46.762;23.598;2023-01-13T04:01:25;34.30;;;20.90;;
61358;SDS011;47228;46.762;23.598;2023-01-13T04:04:05;30.80;;;19.70;;
61358;SDS011;47228;46.762;23.598;2023-01-13T04:06:39;34.30;;;21.10;;
61358;SDS011;47228;46.762;23.598;2023-01-13T04:09:16;33.70;;;20.70;;
61358;SDS011;47228;46.762;23.598;2023-01-13T04:14:51;33.10;;;20.10;;
61358;SDS011;47228;46.762;23.598;2023-01-13T04:17:20;31.30;;;20.00;;
61358;SDS011;47228;46.762;23.598;2023-01-13T04:19:50;34.50;;;20.30;;
61358;SDS011;47228;46.762;23.598;2023-01-13T04:22:18;30.70;;;18.60;;
61358;SDS011;47228;46.762;23.598;2023-01-13T04:24:46;36.90;;;21.10;;
61358;SDS011;47228;46.762;23.598;2023-01-13T04:27:14;31.10;;;21.00;;
61358;SDS011;47228;46.762;23.598;2023-01-13T04:29:42;30.30;;;18.90;;
61358;SDS011;47228;46.762;23.598;2023-01-13T04:32:10;31.90;;;19.60;;
61358;SDS011;47228;46.762;23.598;2023-01-13T04:34:37;32.50;;;20.30;;
61358;SDS011;47228;46.762;23.598;2023-01-13T04:37:05;36.90;;;21.60;;
61358;SDS011;47228;46.762;23.598;2023-01-13T04:39:33;33.60;;;20.90;;
61358;SDS011;47228;46.762;23.598;2023-01-13T04:42:01;38.70;;;22.30;;
61358;SDS011;47228;46.762;23.598;2023-01-13T04:44:29;34.40;;;20.90;;
61358;SDS011;47228;46.762;23.598;2023-01-13T04:47:01;34.20;;;21.00;;
61358;SDS011;47228;46.762;23.598;2023-01-13T04:49:29;35.80;;;21.10;;
61358;SDS011;47228;46.762;23.598;2023-01-13T04:51:57;32.50;;;21.30;;
61358;SDS011;47228;46.762;23.598;2023-01-13T04:54:25;34.70;;;20.90;;
61358;SDS011;47228;46.762;23.598;2023-01-13T04:56:53;29.20;;;20.10;;
61358;SDS011;47228;46.762;23.598;2023-01-13T04:59:21;33.90;;;20.10;;
61358;SDS011;47228;46.762;23.598;2023-01-13T05:01:49;30.30;;;19.70;;
61358;SDS011;47228;46.762;23.598;2023-01-13T05:04:17;33.70;;;19.30;;
61358;SDS011;47228;46.762;23.598;2023-01-13T05:06:45;34.90;;;20.00;;
61358;SDS011;47228;46.762;23.598;2023-01-13T05:09:13;30.50;;;18.90;;
61358;SDS011;47228;46.762;23.598;2023-01-13T05:11:42;33.90;;;19.90;;
61358;SDS011;47228;46.762;23.598;2023-01-13T05:14:28;33.90;;;19.50;;
61358;SDS011;47228;46.762;23.598;2023-01-13T05:17:19;30.10;;;19.20;;
61358;SDS011;47228;46.762;23.598;2023-01-13T05:19:49;34.30;;;20.50;;
61358;SDS011;47228;46.762;23.598;2023-01-13T05:22:17;32.00;;;19.80;;
61358;SDS011;47228;46.762;23.598;2023-01-13T05:25:04;30.90;;;18.30;;
61358;SDS011;47228;46.762;23.598;2023-01-13T05:27:52;37.80;;;19.90;;
61358;SDS011;47228;46.762;23.598;2023-01-13T05:30:26;31.00;;;18.20;;
61358;SDS011;47228;46.762;23.598;2023-01-13T05:32:56;30.90;;;18.40;;
61358;SDS011;47228;46.762;23.598;2023-01-13T05:35:24;33.20;;;20.90;;
61358;SDS011;47228;46.762;23.598;2023-01-13T05:37:53;47.70;;;25.80;;
61358;SDS011;47228;46.762;23.598;2023-01-13T05:40:21;33.80;;;20.60;;
61358;SDS011;47228;46.762;23.598;2023-01-13T05:43:09;31.60;;;19.00;;
61358;SDS011;47228;46.762;23.598;2023-01-13T05:50:52;29.00;;;18.30;;
61358;SDS011;47228;46.762;23.598;2023-01-13T05:53:21;32.30;;;18.70;;
61358;SDS011;47228;46.762;23.598;2023-01-13T05:55:49;31.50;;;18.80;;
61358;SDS011;47228;46.762;23.598;2023-01-13T05:58:18;30.00;;;18.10;;
61358;SDS011;47228;46.762;23.598;2023-01-13T06:00:47;28.00;;;18.60;;
61358;SDS011;47228;46.762;23.598;2023-01-13T06:03:16;33.10;;;20.00;;
61358;SDS011;47228;46.762;23.598;2023-01-13T06:05:48;31.80;;;20.10;;
61358;SDS011;47228;46.762;23.598;2023-01-13T06:08:18;32.10;;;19.10;;
61358;SDS011;47228;46.762;23.598;2023-01-13T06:10:46;60.20;;;31.90;;
61358;SDS011;47228;46.762;23.598;2023-01-13T06:13:14;51.70;;;30.90;;
61358;SDS011;47228;46.762;23.598;2023-01-13T06:15:42;38.60;;;21.30;;
61358;SDS011;47228;46.762;23.598;2023-01-13T06:18:10;46.00;;;27.60;;
61358;SDS011;47228;46.762;23.598;2023-01-13T06:20:38;30.40;;;19.90;;
61358;SDS011;47228;46.762;23.598;2023-01-13T06:23:07;32.50;;;19.90;;
61358;SDS011;47228;46.762;23.598;2023-01-13T06:28:08;34.50;;;20.20;;
61358;SDS011;47228;46.762;23.598;2023-01-13T06:30:50;33.50;;;19.70;;
61358;SDS011;47228;46.762;23.598;2023-01-13T06:33:23;31.90;;;18.60;;
61358;SDS011;47228;46.762;23.598;2023-01-13T06:36:00;30.80;;;18.90;;
61358;SDS011;47228;46.762;23.598;2023-01-13T06:38:33;32.50;;;19.90;;
61358;SDS011;47228;46.762;23.598;2023-01-13T06:41:05;34.30;;;20.10;;
61358;SDS011;47228;46.762;23.598;2023-01-13T06:43:34;33.30;;;20.20;;
61358;SDS011;47228;46.762;23.598;2023-01-13T06:46:03;32.00;;;19.60;;
61358;SDS011;47228;46.762;23.598;2023-01-13T06:48:31;29.20;;;19.10;;
61358;SDS011;47228;46.762;23.598;2023-01-13T06:51:02;31.60;;;19.90;;
61358;SDS011;47228;46.762;23.598;2023-01-13T06:53:31;33.00;;;20.10;;
61358;SDS011;47228;46.762;23.598;2023-01-13T06:55:59;34.20;;;21.20;;
61358;SDS011;47228;46.762;23.598;2023-01-13T06:58:27;31.40;;;19.40;;
61358;SDS011;47228;46.762;23.598;2023-01-13T07:00:58;36.00;;;20.50;;
61358;SDS011;47228;46.762;23.598;2023-01-13T07:03:27;32.80;;;19.10;;
61358;SDS011;47228;46.762;23.598;2023-01-13T07:05:55;30.50;;;19.00;;
61358;SDS011;47228;46.762;23.598;2023-01-13T07:08:23;31.10;;;20.30;;
61358;SDS011;47228;46.762;23.598;2023-01-13T07:10:51;34.10;;;21.20;;
61358;SDS011;47228;46.762;23.598;2023-01-13T07:13:19;33.80;;;20.60;;
61358;SDS011;47228;46.762;23.598;2023-01-13T07:16:06;34.60;;;20.80;;
61358;SDS011;47228;46.762;23.598;2023-01-13T07:18:35;36.30;;;21.40;;
61358;SDS011;47228;46.762;23.598;2023-01-13T07:21:04;33.30;;;20.00;;
61358;SDS011;47228;46.762;23.598;2023-01-13T07:23:38;34.40;;;21.40;;
61358;SDS011;47228;46.762;23.598;2023-01-13T07:26:08;33.50;;;20.10;;
61358;SDS011;47228;46.762;23.598;2023-01-13T07:28:37;33.90;;;20.90;;
61358;SDS011;47228;46.762;23.598;2023-01-13T07:31:11;39.90;;;21.90;;
61358;SDS011;47228;46.762;23.598;2023-01-13T07:33:41;39.00;;;22.80;;
61358;SDS011;47228;46.762;23.598;2023-01-13T07:36:09;41.50;;;23.20;;
61358;SDS011;47228;46.762;23.598;2023-01-13T07:38:37;31.90;;;20.50;;
61358;SDS011;47228;46.762;23.598;2023-01-13T07:41:06;33.70;;;21.80;;
61358;SDS011;47228;46.762;23.598;2023-01-13T07:43:52;37.10;;;22.60;;
61358;SDS011;47228;46.762;23.598;2023-01-13T07:46:20;35.00;;;22.20;;
61358;SDS011;47228;46.762;23.598;2023-01-13T07:48:48;35.20;;;22.60;;
61358;SDS011;47228;46.762;23.598;2023-01-13T07:51:16;33.70;;;22.60;;
61358;SDS011;47228;46.762;23.598;2023-01-13T07:53:44;40.90;;;23.30;;
61358;SDS011;47228;46.762;23.598;2023-01-13T07:56:12;35.70;;;21.50;;
61358;SDS011;47228;46.762;23.598;2023-01-13T07:58:40;39.30;;;22.60;;
61358;SDS011;47228;46.762;23.598;2023-01-13T08:01:09;33.50;;;20.10;;
61358;SDS011;47228;46.762;23.598;2023-01-13T08:03:39;35.90;;;22.30;;
61358;SDS011;47228;46.762;23.598;2023-01-13T08:06:08;35.10;;;21.90;;
61358;SDS011;47228;46.762;23.598;2023-01-13T08:08:36;39.70;;;24.10;;
61358;SDS011;47228;46.762;23.598;2023-01-13T08:11:05;52.90;;;25.80;;
61358;SDS011;47228;46.762;23.598;2023-01-13T08:13:34;37.10;;;22.70;;
61358;SDS011;47228;46.762;23.598;2023-01-13T08:16:04;44.00;;;23.30;;
61358;SDS011;47228;46.762;23.598;2023-01-13T08:18:34;35.70;;;22.30;;
61358;SDS011;47228;46.762;23.598;2023-01-13T08:21:07;42.10;;;24.40;;
61358;SDS011;47228;46.762;23.598;2023-01-13T08:23:38;38.30;;;23.20;;
61358;SDS011;47228;46.762;23.598;2023-01-13T08:26:09;39.70;;;24.60;;
61358;SDS011;47228;46.762;23.598;2023-01-13T08:28:39;39.70;;;23.50;;
61358;SDS011;47228;46.762;23.598;2023-01-13T08:31:09;36.00;;;22.80;;
61358;SDS011;47228;46.762;23.598;2023-01-13T08:33:39;37.90;;;23.70;;
61358;SDS011;47228;46.762;23.598;2023-01-13T08:36:09;38.20;;;23.70;;
61358;SDS011;47228;46.762;23.598;2023-01-13T08:38:39;35.90;;;23.00;;
61358;SDS011;47228;46.762;23.598;2023-01-13T08:41:09;40.20;;;25.50;;
61358;SDS011;47228;46.762;23.598;2023-01-13T08:43:41;38.20;;;23.70;;
61358;SDS011;47228;46.762;23.598;2023-01-13T08:46:09;40.40;;;24.40;;
61358;SDS011;47228;46.762;23.598;2023-01-13T08:48:37;37.90;;;23.20;;
61358;SDS011;47228;46.762;23.598;2023-01-13T08:51:05;36.70;;;22.80;;
61358;SDS011;47228;46.762;23.598;2023-01-13T08:53:35;34.60;;;21.70;;
61358;SDS011;47228;46.762;23.598;2023-01-13T08:56:07;35.30;;;22.20;;
61358;SDS011;47228;46.762;23.598;2023-01-13T08:58:38;35.90;;;22.60;;
61358;SDS011;47228;46.762;23.598;2023-01-13T09:01:07;33.50;;;21.20;;
61358;SDS011;47228;46.762;23.598;2023-01-13T09:03:36;35.80;;;22.10;;
61358;SDS011;47228;46.762;23.598;2023-01-13T09:06:05;35.50;;;23.40;;
61358;SDS011;47228;46.762;23.598;2023-01-13T09:08:34;36.10;;;22.80;;
61358;SDS011;47228;46.762;23.598;2023-01-13T09:11:01;36.70;;;24.10;;
61358;SDS011;47228;46.762;23.598;2023-01-13T09:13:49;37.70;;;24.10;;
61358;SDS011;47228;46.762;23.598;2023-01-13T09:16:18;39.80;;;24.50;;
61358;SDS011;47228;46.762;23.598;2023-01-13T09:18:46;37.30;;;24.20;;
61358;SDS011;47228;46.762;23.598;2023-01-13T09:21:14;37.30;;;23.10;;
61358;SDS011;47228;46.762;23.598;2023-01-13T09:23:43;34.00;;;22.20;;
61358;SDS011;47228;46.762;23.598;2023-01-13T09:26:11;34.30;;;22.70;;
61358;SDS011;47228;46.762;23.598;2023-01-13T09:28:42;34.50;;;21.50;;
61358;SDS011;47228;46.762;23.598;2023-01-13T09:31:10;32.50;;;21.00;;
61358;SDS011;47228;46.762;23.598;2023-01-13T09:33:38;35.60;;;20.40;;
61358;SDS011;47228;46.762;23.598;2023-01-13T09:36:25;33.00;;;22.10;;
61358;SDS011;47228;46.762;23.598;2023-01-13T09:38:53;35.60;;;21.90;;
61358;SDS011;47228;46.762;23.598;2023-01-13T09:41:21;35.50;;;23.00;;
61358;SDS011;47228;46.762;23.598;2023-01-13T09:44:12;35.50;;;24.10;;
61358;SDS011;47228;46.762;23.598;2023-01-13T09:46:48;40.90;;;26.20;;
61358;SDS011;47228;46.762;23.598;2023-01-13T09:49:20;40.20;;;25.70;;
61358;SDS011;47228;46.762;23.598;2023-01-13T09:51:54;39.40;;;25.90;;
61358;SDS011;47228;46.762;23.598;2023-01-13T09:54:30;32.90;;;22.90;;
61358;SDS011;47228;46.762;23.598;2023-01-13T09:57:12;37.90;;;22.90;;
61358;SDS011;47228;46.762;23.598;2023-01-13T09:59:42;40.80;;;26.10;;
61358;SDS011;47228;46.762;23.598;2023-01-13T10:07:53;36.80;;;25.00;;
61358;SDS011;47228;46.762;23.598;2023-01-13T10:10:42;37.20;;;24.40;;
61358;SDS011;47228;46.762;23.598;2023-01-13T10:18:43;30.70;;;20.90;;
61358;SDS011;47228;46.762;23.598;2023-01-13T10:27:06;37.80;;;23.20;;
61358;SDS011;47228;46.762;23.598;2023-01-13T10:29:41;33.80;;;23.30;;
61358;SDS011;47228;46.762;23.598;2023-01-13T10:32:09;34.60;;;22.50;;
61358;SDS011;47228;46.762;23.598;2023-01-13T10:34:48;35.30;;;22.40;;
61358;SDS011;47228;46.762;23.598;2023-01-13T10:37:19;31.50;;;20.20;;
61358;SDS011;47228;46.762;23.598;2023-01-13T10:39:48;28.60;;;19.10;;
61358;SDS011;47228;46.762;23.598;2023-01-13T10:42:22;28.80;;;17.80;;
61358;SDS011;47228;46.762;23.598;2023-01-13T10:44:53;23.10;;;14.60;;
61358;SDS011;47228;46.762;23.598;2023-01-13T10:47:24;23.00;;;15.70;;
61358;SDS011;47228;46.762;23.598;2023-01-13T10:50:02;25.10;;;17.30;;
61358;SDS011;47228;46.762;23.598;2023-01-13T10:52:34;23.40;;;15.30;;
61358;SDS011;47228;46.762;23.598;2023-01-13T10:55:26;14.90;;;9.90;;
61358;SDS011;47228;46.762;23.598;2023-01-13T10:58:13;13.10;;;8.10;;
61358;SDS011;47228;46.762;23.598;2023-01-13T11:00:47;12.90;;;8.00;;
61358;SDS011;47228;46.762;23.598;2023-01-13T11:03:17;13.50;;;8.50;;
61358;SDS011;47228;46.762;23.598;2023-01-13T11:05:54;12.10;;;7.80;;
61358;SDS011;47228;46.762;23.598;2023-01-13T11:08:26;13.50;;;8.00;;
61358;SDS011;47228;46.762;23.598;2023-01-13T11:10:56;12.20;;;7.40;;
61358;SDS011;47228;46.762;23.598;2023-01-13T11:13:30;11.40;;;8.10;;
61358;SDS011;47228;46.762;23.598;2023-01-13T11:16:26;9.90;;;6.70;;
61358;SDS011;47228;46.762;23.598;2023-01-13T11:18:56;11.70;;;7.40;;
61358;SDS011;47228;46.762;23.598;2023-01-13T11:24:20;10.10;;;6.90;;
61358;SDS011;47228;46.762;23.598;2023-01-13T11:27:00;10.60;;;6.90;;
61358;SDS011;47228;46.762;23.598;2023-01-13T11:32:47;12.50;;;7.80;;
61358;SDS011;47228;46.762;23.598;2023-01-13T11:38:50;9.60;;;6.40;;
61358;SDS011;47228;46.762;23.598;2023-01-13T11:46:43;12.20;;;6.20;;
61358;SDS011;47228;46.762;23.598;2023-01-13T11:49:26;9.30;;;6.50;;
61358;SDS011;47228;46.762;23.598;2023-01-13T11:54:44;9.20;;;6.00;;
61358;SDS011;47228;46.762;23.598;2023-01-13T12:00:13;9.60;;;6.60;;
61358;SDS011;47228;46.762;23.598;2023-01-13T12:30:20;13.80;;;6.40;;
61358;SDS011;47228;46.762;23.598;2023-01-13T12:32:52;10.70;;;6.50;;
61358;SDS011;47228;46.762;23.598;2023-01-13T12:35:30;12.40;;;6.80;;
61358;SDS011;47228;46.762;23.598;2023-01-13T12:43:51;9.60;;;6.30;;
61358;SDS011;47228;46.762;23.598;2023-01-13T12:59:44;9.70;;;6.40;;
61358;SDS011;47228;46.762;23.598;2023-01-13T13:02:39;9.80;;;6.60;;
61358;SDS011;47228;46.762;23.598;2023-01-13T13:08:00;10.20;;;6.70;;
61358;SDS011;47228;46.762;23.598;2023-01-13T13:10:35;10.90;;;7.10;;
61358;SDS011;47228;46.762;23.598;2023-01-13T13:13:06;12.10;;;7.30;;
61358;SDS011;47228;46.762;23.598;2023-01-13T13:15:47;13.90;;;8.40;;
61358;SDS011;47228;46.762;23.598;2023-01-13T13:23:37;11.90;;;7.80;;
61358;SDS011;47228;46.762;23.598;2023-01-13T13:28:45;12.20;;;7.70;;
61358;SDS011;47228;46.762;23.598;2023-01-13T13:40:40;13.90;;;8.20;;
61358;SDS011;47228;46.762;23.598;2023-01-13T13:46:47;13.10;;;8.70;;
61358;SDS011;47228;46.762;23.598;2023-01-13T13:49:17;13.20;;;8.60;;
61358;SDS011;47228;46.762;23.598;2023-01-13T13:52:05;13.50;;;9.30;;
61358;SDS011;47228;46.762;23.598;2023-01-13T13:54:42;17.10;;;9.80;;
61358;SDS011;47228;46.762;23.598;2023-01-13T13:57:22;13.60;;;8.70;;
61358;SDS011;47228;46.762;23.598;2023-01-13T14:00:07;14.80;;;9.90;;
61358;SDS011;47228;46.762;23.598;2023-01-13T14:05:31;14.80;;;9.90;;
61358;SDS011;47228;46.762;23.598;2023-01-13T14:10:43;15.60;;;10.50;;
61358;SDS011;47228;46.762;23.598;2023-01-13T14:16:01;17.40;;;11.20;;
61358;SDS011;47228;46.762;23.598;2023-01-13T14:18:32;15.20;;;10.10;;
61358;SDS011;47228;46.762;23.598;2023-01-13T14:21:27;17.00;;;11.00;;
61358;SDS011;47228;46.762;23.598;2023-01-13T14:24:01;17.00;;;11.40;;
61358;SDS011;47228;46.762;23.598;2023-01-13T14:26:40;16.00;;;10.20;;
61358;SDS011;47228;46.762;23.598;2023-01-13T14:29:20;16.70;;;11.30;;
61358;SDS011;47228;46.762;23.598;2023-01-13T14:31:50;22.00;;;11.90;;
61358;SDS011;47228;46.762;23.598;2023-01-13T14:34:21;17.80;;;11.80;;
61358;SDS011;47228;46.762;23.598;2023-01-13T14:39:54;17.60;;;11.10;;
61358;SDS011;47228;46.762;23.598;2023-01-13T14:42:22;17.40;;;11.80;;
61358;SDS011;47228;46.762;23.598;2023-01-13T14:44:50;17.50;;;11.80;;
61358;SDS011;47228;46.762;23.598;2023-01-13T14:49:53;17.60;;;11.60;;
61358;SDS011;47228;46.762;23.598;2023-01-13T14:52:31;20.80;;;13.40;;
61358;SDS011;47228;46.762;23.598;2023-01-13T14:57:33;17.80;;;11.90;;
61358;SDS011;47228;46.762;23.598;2023-01-13T15:02:43;19.70;;;12.80;;
61358;SDS011;47228;46.762;23.598;2023-01-13T15:07:49;24.50;;;14.80;;
61358;SDS011;47228;46.762;23.598;2023-01-13T15:10:30;23.60;;;14.70;;
61358;SDS011;47228;46.762;23.598;2023-01-13T15:13:01;22.30;;;14.60;;
61358;SDS011;47228;46.762;23.598;2023-01-13T15:15:35;17.90;;;12.00;;
61358;SDS011;47228;46.762;23.598;2023-01-13T15:18:13;21.80;;;14.00;;
61358;SDS011;47228;46.762;23.598;2023-01-13T15:20:42;28.20;;;15.00;;
61358;SDS011;47228;46.762;23.598;2023-01-13T15:23:10;25.20;;;14.20;;
61358;SDS011;47228;46.762;23.598;2023-01-13T15:25:40;23.20;;;15.20;;
61358;SDS011;47228;46.762;23.598;2023-01-13T15:28:24;20.40;;;13.50;;
61358;SDS011;47228;46.762;23.598;2023-01-13T15:30:54;18.20;;;12.90;;
61358;SDS011;47228;46.762;23.598;2023-01-13T15:33:27;22.10;;;13.40;;
61358;SDS011;47228;46.762;23.598;2023-01-13T15:35:55;22.80;;;14.30;;
61358;SDS011;47228;46.762;23.598;2023-01-13T15:38:23;23.30;;;14.60;;
61358;SDS011;47228;46.762;23.598;2023-01-13T15:40:51;22.60;;;14.90;;
61358;SDS011;47228;46.762;23.598;2023-01-13T15:43:20;21.90;;;14.40;;
61358;SDS011;47228;46.762;23.598;2023-01-13T15:46:12;22.60;;;14.70;;
61358;SDS011;47228;46.762;23.598;2023-01-13T15:49:13;22.30;;;14.60;;
61358;SDS011;47228;46.762;23.598;2023-01-13T15:51:49;20.90;;;14.30;;
61358;SDS011;47228;46.762;23.598;2023-01-13T15:54:17;24.10;;;15.30;;
61358;SDS011;47228;46.762;23.598;2023-01-13T15:56:49;23.10;;;15.00;;
61358;SDS011;47228;46.762;23.598;2023-01-13T15:59:18;24.20;;;16.10;;
61358;SDS011;47228;46.762;23.598;2023-01-13T16:01:48;23.20;;;14.90;;
61358;SDS011;47228;46.762;23.598;2023-01-13T16:04:16;25.90;;;16.70;;
61358;SDS011;47228;46.762;23.598;2023-01-13T16:06:44;25.00;;;15.90;;
61358;SDS011;47228;46.762;23.598;2023-01-13T16:09:14;32.20;;;18.50;;
61358;SDS011;47228;46.762;23.598;2023-01-13T16:11:43;32.50;;;19.70;;
61358;SDS011;47228;46.762;23.598;2023-01-13T16:14:11;30.40;;;18.50;;
61358;SDS011;47228;46.762;23.598;2023-01-13T16:16:39;31.80;;;19.40;;
61358;SDS011;47228;46.762;23.598;2023-01-13T16:19:08;31.20;;;18.10;;
61358;SDS011;47228;46.762;23.598;2023-01-13T16:21:37;27.20;;;17.50;;
61358;SDS011;47228;46.762;23.598;2023-01-13T16:24:07;34.60;;;19.20;;
61358;SDS011;47228;46.762;23.598;2023-01-13T16:26:34;35.90;;;20.10;;
61358;SDS011;47228;46.762;23.598;2023-01-13T16:29:04;35.60;;;20.90;;
61358;SDS011;47228;46.762;23.598;2023-01-13T16:31:33;32.80;;;18.50;;
61358;SDS011;47228;46.762;23.598;2023-01-13T16:34:02;28.20;;;18.10;;
61358;SDS011;47228;46.762;23.598;2023-01-13T16:36:33;27.20;;;17.40;;
61358;SDS011;47228;46.762;23.598;2023-01-13T16:39:02;28.50;;;18.90;;
61358;SDS011;47228;46.762;23.598;2023-01-13T16:41:31;24.80;;;16.20;;
61358;SDS011;47228;46.762;23.598;2023-01-13T16:44:00;31.10;;;17.90;;
61358;SDS011;47228;46.762;23.598;2023-01-13T16:46:32;149.70;;;66.00;;
61358;SDS011;47228;46.762;23.598;2023-01-13T16:49:01;58.50;;;32.50;;
61358;SDS011;47228;46.762;23.598;2023-01-13T16:51:31;130.60;;;58.90;;
61358;SDS011;47228;46.762;23.598;2023-01-13T16:54:00;87.30;;;42.10;;
61358;SDS011;47228;46.762;23.598;2023-01-13T16:56:29;62.00;;;32.10;;
61358;SDS011;47228;46.762;23.598;2023-01-13T16:58:59;41.10;;;24.00;;
61358;SDS011;47228;46.762;23.598;2023-01-13T17:01:33;46.30;;;27.70;;
61358;SDS011;47228;46.762;23.598;2023-01-13T17:04:06;45.70;;;26.10;;
61358;SDS011;47228;46.762;23.598;2023-01-13T17:07:17;40.40;;;23.90;;
61358;SDS011;47228;46.762;23.598;2023-01-13T17:09:43;40.40;;;24.10;;
61358;SDS011;47228;46.762;23.598;2023-01-13T17:12:11;47.10;;;24.20;;
61358;SDS011;47228;46.762;23.598;2023-01-13T17:14:39;42.90;;;26.40;;
61358;SDS011;47228;46.762;23.598;2023-01-13T17:17:17;44.60;;;24.50;;
61358;SDS011;47228;46.762;23.598;2023-01-13T17:19:48;48.70;;;24.40;;
61358;SDS011;47228;46.762;23.598;2023-01-13T17:22:17;40.50;;;23.20;;
61358;SDS011;47228;46.762;23.598;2023-01-13T17:24:46;33.60;;;20.50;;
61358;SDS011;47228;46.762;23.598;2023-01-13T17:27:15;33.00;;;19.60;;
61358;SDS011;47228;46.762;23.598;2023-01-13T17:29:45;35.20;;;21.80;;
61358;SDS011;47228;46.762;23.598;2023-01-13T17:32:13;36.70;;;21.50;;
61358;SDS011;47228;46.762;23.598;2023-01-13T17:34:46;40.40;;;22.50;;